createdAt,value
2019-02-10T00:01:25.733Z,17.00
2019-02-10T00:03:55.068Z,17.37
2019-02-10T00:06:25.069Z,17.63
2019-02-10T00:08:54.409Z,14.63
2019-02-10T00:11:23.780Z,20.00
2019-02-10T00:13:53.654Z,13.67
2019-02-10T00:16:23.025Z,14.03
2019-02-10T00:18:52.437Z,19.50
2019-02-10T00:21:21.759Z,14.33
2019-02-10T00:23:51.079Z,18.83
2019-02-10T00:26:20.381Z,14.53
2019-02-10T00:28:50.864Z,17.07
2019-02-10T00:31:23.471Z,14.87
2019-02-10T00:33:52.873Z,18.80
2019-02-10T00:36:22.367Z,20.97
2019-02-10T00:38:51.693Z,16.87
2019-02-10T00:41:21.130Z,18.83
2019-02-10T00:43:50.445Z,21.13
2019-02-10T00:46:19.792Z,17.83
2019-02-10T00:48:49.098Z,15.63
2019-02-10T00:51:18.530Z,16.93
2019-02-10T00:53:47.873Z,21.10
2019-02-10T00:56:17.281Z,15.40
2019-02-10T00:58:47.548Z,20.90
2019-02-10T01:01:16.967Z,18.00
2019-02-10T01:03:46.217Z,17.80
2019-02-10T01:06:15.558Z,17.33
2019-02-10T01:08:44.862Z,23.70
2019-02-10T01:11:14.199Z,16.63
2019-02-10T01:13:43.496Z,14.10
2019-02-10T01:16:12.839Z,17.93
2019-02-10T01:19:00.049Z,18.83
2019-02-10T01:21:29.389Z,16.03
2019-02-10T01:23:58.688Z,20.80
2019-02-10T01:26:28.033Z,19.17
2019-02-10T01:28:57.331Z,20.53
2019-02-10T01:31:26.736Z,13.80
2019-02-10T01:33:56.036Z,23.47
2019-02-10T01:36:25.377Z,19.40
2019-02-10T01:38:54.677Z,16.67
2019-02-10T01:41:24.984Z,14.70
2019-02-10T01:43:54.284Z,21.43
2019-02-10T01:46:23.626Z,16.37
2019-02-10T01:48:52.925Z,18.27
2019-02-10T01:51:22.263Z,17.07
2019-02-10T01:53:51.565Z,18.20
2019-02-10T01:56:20.910Z,17.03
2019-02-10T01:58:50.204Z,22.03
2019-02-10T02:01:19.542Z,18.87
2019-02-10T02:03:48.843Z,13.87
2019-02-10T02:06:18.177Z,14.37
2019-02-10T02:08:47.483Z,15.47
2019-02-10T02:11:16.808Z,17.30
2019-02-10T02:13:46.110Z,20.90
2019-02-10T02:16:15.444Z,12.77
2019-02-10T02:18:44.752Z,16.23
2019-02-10T02:21:14.097Z,17.43
2019-02-10T02:23:43.392Z,18.37
2019-02-10T02:26:12.737Z,15.87
2019-02-10T02:28:42.037Z,18.43
2019-02-10T02:31:11.381Z,17.30
2019-02-10T02:33:40.728Z,15.10
2019-02-10T02:36:10.065Z,18.60
2019-02-10T02:38:39.368Z,12.97
2019-02-10T02:41:08.706Z,17.90
2019-02-10T02:43:38.011Z,16.50
2019-02-10T02:46:07.355Z,13.77
2019-02-10T02:48:36.644Z,11.87
2019-02-10T02:51:05.984Z,17.40
2019-02-10T02:53:35.285Z,15.70
2019-02-10T02:56:04.690Z,13.47
2019-02-10T02:58:33.992Z,18.60
2019-02-10T03:01:03.508Z,18.70
2019-02-10T03:03:32.804Z,11.47
2019-02-10T03:06:02.137Z,14.57
2019-02-10T03:08:31.436Z,17.33
2019-02-10T03:11:00.771Z,10.13
2019-02-10T03:13:30.080Z,21.77
2019-02-10T03:15:59.666Z,20.37
2019-02-10T03:18:28.961Z,15.60
2019-02-10T03:20:58.320Z,18.07
2019-02-10T03:23:27.730Z,15.03
2019-02-10T03:25:57.068Z,16.93
2019-02-10T03:28:26.402Z,11.03
2019-02-10T03:30:55.721Z,18.77
2019-02-10T03:33:25.039Z,12.03
2019-02-10T03:35:54.346Z,10.90
2019-02-10T03:38:23.680Z,15.00
2019-02-10T03:40:52.985Z,15.40
2019-02-10T03:43:22.319Z,15.83
2019-02-10T03:45:51.611Z,15.50
2019-02-10T03:48:20.951Z,20.87
2019-02-10T03:50:50.253Z,9.27
2019-02-10T03:53:19.586Z,17.00
2019-02-10T03:55:48.886Z,13.57
2019-02-10T03:58:18.222Z,15.90
2019-02-10T04:00:47.512Z,13.67
2019-02-10T04:03:16.860Z,14.60
2019-02-10T04:05:46.165Z,14.40
2019-02-10T04:08:15.566Z,15.17
2019-02-10T04:10:44.865Z,11.70
2019-02-10T04:13:14.202Z,15.80
2019-02-10T04:15:43.502Z,21.57
2019-02-10T04:18:12.846Z,16.07
2019-02-10T04:20:42.140Z,13.93
2019-02-10T04:23:11.473Z,15.13
2019-02-10T04:25:40.765Z,16.07
2019-02-10T04:28:10.101Z,16.67
2019-02-10T04:30:39.405Z,15.73
2019-02-10T04:33:08.807Z,14.13
2019-02-10T04:35:38.112Z,10.43
2019-02-10T04:38:07.456Z,19.20
2019-02-10T04:40:36.754Z,13.73
2019-02-10T04:43:06.086Z,12.33
2019-02-10T04:45:35.385Z,12.07
2019-02-10T04:48:04.723Z,13.13
2019-02-10T04:50:34.020Z,14.50
2019-02-10T04:53:03.629Z,10.60
2019-02-10T04:55:32.930Z,15.83
2019-02-10T04:58:02.273Z,14.90
2019-02-10T05:00:31.643Z,8.83
2019-02-10T05:03:00.988Z,15.17
2019-02-10T05:05:30.529Z,17.73
2019-02-10T05:07:59.949Z,14.83
2019-02-10T05:10:29.272Z,13.93
2019-02-10T05:12:58.609Z,13.73
2019-02-10T05:15:28.869Z,17.60
2019-02-10T05:17:58.227Z,12.63
2019-02-10T05:20:27.503Z,14.53
2019-02-10T05:22:56.837Z,15.20
2019-02-10T05:25:26.140Z,15.80
2019-02-10T05:27:55.489Z,19.80
2019-02-10T05:30:24.809Z,12.07
2019-02-10T05:32:54.148Z,16.27
2019-02-10T05:35:23.449Z,14.77
2019-02-10T05:37:52.787Z,17.13
2019-02-10T05:40:22.085Z,14.13
2019-02-10T05:42:51.418Z,18.40
2019-02-10T05:45:20.721Z,18.60
2019-02-10T05:47:50.061Z,15.90
2019-02-10T05:50:19.360Z,20.87
2019-02-10T05:52:48.696Z,13.10
2019-02-10T05:55:18.027Z,16.53
2019-02-10T05:57:47.383Z,17.97
2019-02-10T06:00:16.684Z,18.60
2019-02-10T06:02:45.973Z,16.57
2019-02-10T06:05:17.952Z,21.60
2019-02-10T06:07:47.253Z,13.23
2019-02-10T06:10:16.598Z,19.13
2019-02-10T06:12:45.905Z,19.47
2019-02-10T06:15:15.244Z,18.77
2019-02-10T06:17:44.545Z,14.07
2019-02-10T06:20:13.954Z,14.57
2019-02-10T06:22:43.251Z,13.37
2019-02-10T06:25:12.594Z,14.97
2019-02-10T06:27:41.888Z,21.17
2019-02-10T06:30:11.224Z,20.80
2019-02-10T06:32:40.529Z,16.07
2019-02-10T06:35:10.249Z,15.50
2019-02-10T06:37:39.553Z,18.17
2019-02-10T06:40:09.549Z,23.47
2019-02-10T06:42:38.846Z,58.77
2019-02-10T06:45:10.135Z,24.47
2019-02-10T06:47:39.433Z,18.83
2019-02-10T06:50:09.204Z,18.73
2019-02-10T06:52:38.510Z,18.17
2019-02-10T06:55:09.244Z,16.90
2019-02-10T06:57:38.494Z,16.23
2019-02-10T07:00:11.805Z,16.60
2019-02-10T07:03:17.953Z,32.37
2019-02-10T07:05:47.302Z,28.67
2019-02-10T07:08:16.615Z,13.67
2019-02-10T07:10:45.944Z,15.17
2019-02-10T07:13:18.496Z,16.77
2019-02-10T07:16:24.197Z,15.93
2019-02-10T07:19:29.953Z,17.47
2019-02-10T07:21:59.708Z,28.87
2019-02-10T07:24:47.113Z,15.23
2019-02-10T07:27:22.576Z,16.50
2019-02-10T07:30:06.965Z,19.10
2019-02-10T07:32:45.451Z,19.83
2019-02-10T07:35:38.690Z,21.13
2019-02-10T07:38:14.140Z,20.73
2019-02-10T07:40:46.700Z,28.43
2019-02-10T07:43:40.200Z,22.20
2019-02-10T07:46:18.629Z,19.17
2019-02-10T07:49:05.630Z,18.27
2019-02-10T07:51:58.829Z,22.90
2019-02-10T07:54:42.237Z,17.67
2019-02-10T07:57:22.949Z,18.00
2019-02-10T07:59:55.549Z,26.13
2019-02-10T08:02:44.295Z,19.40
2019-02-10T08:05:22.654Z,16.83
2019-02-10T08:08:17.845Z,18.67
2019-02-10T08:10:50.404Z,22.00
2019-02-10T08:13:25.462Z,16.40
2019-02-10T08:16:00.840Z,26.00
2019-02-10T08:18:45.277Z,29.93
2019-02-10T08:21:32.562Z,23.60
2019-02-10T08:24:07.941Z,25.97
2019-02-10T08:26:46.558Z,27.17
2019-02-10T08:29:42.658Z,23.40
2019-02-10T08:32:17.452Z,16.77
2019-02-10T08:35:10.921Z,14.77
2019-02-10T08:37:52.069Z,59.83
2019-02-10T08:40:27.141Z,39.93
2019-02-10T08:43:11.354Z,18.07
2019-02-10T08:45:48.087Z,22.80
2019-02-10T08:48:41.332Z,18.70
2019-02-10T08:51:25.575Z,19.80
2019-02-10T08:53:54.872Z,22.07
2019-02-10T08:56:24.218Z,19.53
2019-02-10T08:58:53.519Z,21.20
2019-02-10T09:01:22.851Z,26.93
2019-02-10T09:03:52.148Z,25.20
2019-02-10T09:06:21.488Z,21.27
2019-02-10T09:08:50.827Z,22.03
2019-02-10T09:11:20.189Z,20.57
2019-02-10T09:13:49.490Z,18.47
2019-02-10T09:16:18.841Z,17.87
2019-02-10T09:18:48.176Z,21.90
2019-02-10T09:21:17.523Z,22.70
2019-02-10T09:23:46.868Z,21.17
2019-02-10T09:26:16.173Z,20.30
2019-02-10T09:28:45.516Z,26.67
2019-02-10T09:31:14.822Z,17.70
2019-02-10T09:33:44.168Z,20.63
2019-02-10T09:36:13.481Z,22.80
2019-02-10T09:38:42.835Z,20.93
2019-02-10T09:41:12.132Z,24.47
2019-02-10T09:43:41.475Z,19.50
2019-02-10T09:46:10.768Z,23.30
2019-02-10T09:48:40.175Z,19.03
2019-02-10T09:51:09.512Z,21.67
2019-02-10T09:53:38.852Z,19.20
2019-02-10T09:56:08.161Z,25.23
2019-02-10T09:58:37.504Z,22.33
2019-02-10T10:01:06.815Z,25.10
2019-02-10T10:03:36.174Z,18.60
2019-02-10T10:06:05.472Z,22.63
2019-02-10T10:08:34.815Z,22.17
2019-02-10T10:11:04.119Z,16.83
2019-02-10T10:13:33.677Z,25.43
2019-02-10T10:16:03.057Z,14.80
2019-02-10T10:18:32.405Z,22.23
2019-02-10T10:21:01.710Z,26.53
2019-02-10T10:23:31.099Z,23.00
2019-02-10T10:26:00.395Z,18.63
2019-02-10T10:28:29.818Z,20.07
2019-02-10T10:30:59.191Z,23.63
2019-02-10T10:33:28.542Z,20.67
2019-02-10T10:35:57.845Z,23.27
2019-02-10T10:38:28.093Z,20.13
2019-02-10T10:40:57.441Z,21.50
2019-02-10T10:43:26.790Z,23.13
2019-02-10T10:45:56.093Z,30.47
2019-02-10T10:48:25.437Z,23.53
2019-02-10T10:50:55.716Z,28.93
2019-02-10T10:53:25.085Z,23.37
2019-02-10T10:55:54.392Z,24.73
2019-02-10T10:58:23.760Z,24.40
2019-02-10T11:00:53.100Z,18.80
2019-02-10T11:03:22.401Z,26.73
2019-02-10T11:05:51.737Z,20.90
2019-02-10T11:08:21.038Z,23.53
2019-02-10T11:10:50.371Z,18.53
2019-02-10T11:13:19.673Z,21.93
2019-02-10T11:15:49.023Z,26.57
2019-02-10T11:18:18.333Z,29.00
2019-02-10T11:20:47.695Z,30.07
2019-02-10T11:23:16.991Z,31.63
2019-02-10T11:25:46.336Z,30.50
2019-02-10T11:28:15.637Z,29.03
2019-02-10T11:30:44.977Z,29.47
2019-02-10T11:33:14.276Z,27.43
2019-02-10T11:35:43.618Z,25.47
2019-02-10T11:38:12.923Z,28.43
2019-02-10T11:40:42.261Z,33.93
2019-02-10T11:43:11.569Z,31.53
2019-02-10T11:45:40.910Z,35.30
2019-02-10T11:48:10.226Z,31.00
2019-02-10T11:50:39.573Z,28.10
2019-02-10T11:53:08.878Z,30.40
2019-02-10T11:55:38.224Z,29.60
2019-02-10T11:58:07.533Z,35.90
2019-02-10T12:00:36.873Z,31.73
2019-02-10T12:03:06.254Z,25.37
2019-02-10T12:05:35.594Z,31.00
2019-02-10T12:08:04.894Z,24.80
2019-02-10T12:10:34.297Z,25.17
2019-02-10T12:13:03.599Z,28.97
2019-02-10T12:15:32.929Z,26.63
2019-02-10T12:18:02.232Z,31.20
2019-02-10T12:20:31.812Z,31.53
2019-02-10T12:23:01.112Z,29.43
2019-02-10T12:25:30.456Z,31.20
2019-02-10T12:27:59.768Z,26.87
2019-02-10T12:30:30.841Z,32.73
2019-02-10T12:33:00.126Z,32.73
2019-02-10T12:35:29.462Z,30.90
2019-02-10T12:37:58.761Z,24.07
2019-02-10T12:40:28.202Z,30.73
2019-02-10T12:42:57.511Z,31.83
2019-02-10T12:45:26.883Z,33.47
2019-02-10T12:47:56.167Z,27.53
2019-02-10T12:50:25.766Z,34.80
2019-02-10T12:52:55.070Z,35.60
2019-02-10T12:55:24.883Z,34.17
2019-02-10T12:57:54.185Z,31.23
2019-02-10T13:00:23.531Z,31.97
2019-02-10T13:02:52.866Z,31.67
2019-02-10T13:05:22.169Z,41.77
2019-02-10T13:07:51.513Z,39.17
2019-02-10T13:10:23.118Z,35.87
2019-02-10T13:12:52.452Z,34.23
2019-02-10T13:15:21.768Z,32.47
2019-02-10T13:17:51.104Z,38.00
2019-02-10T13:20:20.406Z,42.37
2019-02-10T13:22:49.746Z,39.73
2019-02-10T13:25:19.052Z,39.50
2019-02-10T13:27:48.389Z,41.63
2019-02-10T13:30:18.540Z,35.07
2019-02-10T13:32:47.888Z,37.57
2019-02-10T13:35:17.188Z,42.50
2019-02-10T13:37:46.533Z,39.07
2019-02-10T13:40:17.772Z,40.43
2019-02-10T13:42:47.120Z,38.23
2019-02-10T13:45:17.397Z,33.97
2019-02-10T13:47:46.746Z,36.83
2019-02-10T13:50:20.844Z,39.23
2019-02-10T13:52:51.161Z,35.97
2019-02-10T13:55:20.473Z,43.37
2019-02-10T13:57:49.817Z,38.47
2019-02-10T14:00:23.478Z,41.57
2019-02-10T14:02:52.821Z,40.97
2019-02-10T14:05:22.134Z,38.63
2019-02-10T14:07:52.462Z,37.87
2019-02-10T14:10:25.625Z,41.07
2019-02-10T14:12:52.727Z,35.63
2019-02-10T14:15:22.036Z,33.63
2019-02-10T14:17:51.387Z,36.03
2019-02-10T14:20:20.861Z,36.03
2019-02-10T14:22:50.201Z,38.63
2019-02-10T14:25:19.570Z,35.87
2019-02-10T14:27:48.922Z,35.60
2019-02-10T14:30:20.618Z,35.67
2019-02-10T14:32:49.963Z,37.43
2019-02-10T14:35:19.310Z,40.83
2019-02-10T14:37:48.608Z,37.77
2019-02-10T14:40:17.921Z,41.70
2019-02-10T14:42:47.258Z,33.67
2019-02-10T14:45:16.738Z,35.27
2019-02-10T14:47:46.081Z,37.20
2019-02-10T14:50:18.738Z,40.10
2019-02-10T14:52:48.093Z,43.90
2019-02-10T14:55:17.408Z,44.07
2019-02-10T14:57:47.018Z,41.63
2019-02-10T15:00:17.204Z,40.83
2019-02-10T15:02:46.515Z,40.97
2019-02-10T15:05:15.859Z,42.27
2019-02-10T15:07:45.160Z,42.30
2019-02-10T15:10:17.598Z,45.07
2019-02-10T15:12:46.898Z,41.97
2019-02-10T15:15:16.248Z,45.80
2019-02-10T15:17:45.545Z,46.33
2019-02-10T15:20:14.887Z,40.10
2019-02-10T15:22:44.265Z,47.33
2019-02-10T15:25:14.249Z,42.83
2019-02-10T15:27:43.547Z,42.87
2019-02-10T15:30:14.146Z,45.67
2019-02-10T15:32:43.430Z,42.50
2019-02-10T15:35:12.774Z,46.63
2019-02-10T15:37:42.073Z,43.63
2019-02-10T15:40:13.320Z,46.83
2019-02-10T15:42:42.622Z,44.47
2019-02-10T15:45:13.005Z,44.10
2019-02-10T15:47:42.325Z,46.70
2019-02-10T15:50:15.147Z,48.33
2019-02-10T15:52:44.450Z,49.67
2019-02-10T15:55:14.234Z,47.77
2019-02-10T15:57:43.607Z,52.70
2019-02-10T16:00:22.864Z,52.30
2019-02-10T16:02:52.233Z,52.93
2019-02-10T16:05:21.586Z,59.57
2019-02-10T16:07:50.942Z,50.20
2019-02-10T16:10:20.250Z,54.60
2019-02-10T16:12:49.594Z,52.87
2019-02-10T16:15:18.898Z,54.90
2019-02-10T16:17:48.237Z,61.17
2019-02-10T16:20:19.168Z,51.50
2019-02-10T16:22:49.478Z,60.23
2019-02-10T16:25:18.784Z,59.13
2019-02-10T16:27:48.134Z,58.60
2019-02-10T16:30:18.586Z,69.93
2019-02-10T16:32:50.104Z,60.40
2019-02-10T16:35:18.853Z,56.37
2019-02-10T16:37:48.264Z,63.10
2019-02-10T16:40:22.185Z,58.20
2019-02-10T16:42:51.602Z,65.30
2019-02-10T16:45:21.949Z,68.30
2019-02-10T16:47:51.376Z,67.37
2019-02-10T16:50:20.690Z,60.53
2019-02-10T16:52:50.037Z,57.20
2019-02-10T16:55:20.484Z,53.83
2019-02-10T16:57:50.760Z,62.67
2019-02-10T17:00:20.106Z,60.77
2019-02-10T17:02:49.476Z,61.30
2019-02-10T17:05:18.826Z,61.97
2019-02-10T17:07:48.126Z,61.03
2019-02-10T17:10:19.676Z,59.97
2019-02-10T17:12:49.029Z,56.50
2019-02-10T17:15:18.381Z,57.47
2019-02-10T17:17:47.693Z,61.03
2019-02-10T17:20:17.045Z,58.80
2019-02-10T17:22:46.347Z,58.43
2019-02-10T17:25:18.480Z,64.57
2019-02-10T17:27:47.784Z,55.23
2019-02-10T17:30:17.139Z,64.17
2019-02-10T17:32:46.429Z,59.07
2019-02-10T17:35:15.787Z,57.67
2019-02-10T17:37:45.097Z,60.37
2019-02-10T17:40:34.168Z,65.33
2019-02-10T17:43:04.450Z,70.90
2019-02-10T17:45:33.797Z,64.60
2019-02-10T17:48:03.108Z,75.93
2019-02-10T17:50:32.593Z,71.40
2019-02-10T17:53:01.900Z,68.07
2019-02-10T17:55:31.255Z,67.23
2019-02-10T17:58:00.617Z,69.33
2019-02-10T18:00:32.119Z,65.40
2019-02-10T18:03:01.486Z,61.43
2019-02-10T18:05:30.936Z,62.33
2019-02-10T18:08:00.216Z,71.37
2019-02-10T18:10:29.748Z,67.60
2019-02-10T18:12:59.116Z,69.70
2019-02-10T18:15:46.068Z,78.83
2019-02-10T18:18:17.056Z,64.97
2019-02-10T18:20:59.946Z,76.17
2019-02-10T18:23:31.133Z,69.10
2019-02-10T18:26:02.149Z,58.53
2019-02-10T18:28:33.205Z,69.60
2019-02-10T18:31:20.326Z,69.83
2019-02-10T18:33:55.990Z,77.50
2019-02-10T18:36:27.228Z,72.83
2019-02-10T18:38:58.430Z,78.57
2019-02-10T18:41:39.292Z,81.83
2019-02-10T18:44:10.324Z,75.70
2019-02-10T18:46:44.338Z,73.03
2019-02-10T18:49:15.405Z,87.33
2019-02-10T18:51:46.355Z,90.60
2019-02-10T18:54:26.304Z,78.17
2019-02-10T18:57:00.056Z,82.07
2019-02-10T18:59:31.371Z,80.97
2019-02-10T19:02:03.549Z,85.83
2019-02-10T19:04:43.325Z,83.73
2019-02-10T19:07:26.349Z,87.27
2019-02-10T19:10:07.121Z,73.47
2019-02-10T19:12:39.702Z,87.97
2019-02-10T19:15:11.917Z,79.87
2019-02-10T19:17:51.821Z,83.73
2019-02-10T19:20:22.833Z,88.87
2019-02-10T19:23:11.105Z,83.03
2019-02-10T19:25:44.738Z,71.47
2019-02-10T19:28:17.501Z,83.10
2019-02-10T19:30:48.569Z,77.93
2019-02-10T19:33:19.675Z,73.60
2019-02-10T19:35:54.003Z,82.73
2019-02-10T19:38:27.730Z,87.40
2019-02-10T19:40:58.813Z,82.13
2019-02-10T19:43:41.529Z,78.47
2019-02-10T19:46:20.109Z,81.27
2019-02-10T19:49:08.309Z,77.27
2019-02-10T19:51:52.430Z,80.83
2019-02-10T19:54:35.111Z,85.00
2019-02-10T19:57:11.925Z,81.40
2019-02-10T19:59:53.287Z,83.73
2019-02-10T20:02:40.606Z,89.77
2019-02-10T20:05:30.997Z,95.10
2019-02-10T20:08:18.275Z,90.73
2019-02-10T20:10:58.921Z,82.80
2019-02-10T20:13:45.981Z,94.17
2019-02-10T20:16:28.859Z,93.70
2019-02-10T20:19:00.461Z,86.10
2019-02-10T20:21:38.776Z,86.83
2019-02-10T20:24:12.533Z,86.57
2019-02-10T20:26:48.988Z,91.20
2019-02-10T20:29:22.706Z,88.37
2019-02-10T20:32:08.719Z,91.90
2019-02-10T20:34:41.037Z,92.77
2019-02-10T20:37:18.044Z,91.93
2019-02-10T20:39:51.998Z,88.20
2019-02-10T20:42:25.939Z,87.70
2019-02-10T20:45:01.325Z,84.20
2019-02-10T20:47:35.050Z,86.37
2019-02-10T20:50:24.335Z,109.17
2019-02-10T20:53:11.629Z,89.97
2019-02-10T20:55:45.593Z,87.63
2019-02-10T20:58:22.076Z,101.97
2019-02-10T21:00:53.057Z,86.70
2019-02-10T21:03:42.121Z,95.67
2019-02-10T21:06:22.018Z,92.87
2019-02-10T21:08:53.425Z,90.57
2019-02-10T21:11:24.490Z,90.27
2019-02-10T21:13:58.265Z,90.20
2019-02-10T21:16:30.868Z,88.30
2019-02-10T21:19:16.344Z,89.53
2019-02-10T21:21:50.001Z,94.70
2019-02-10T21:24:20.952Z,84.13
2019-02-10T21:27:08.166Z,88.90
2019-02-10T21:29:39.678Z,87.80
2019-02-10T21:32:22.570Z,83.60
2019-02-10T21:34:55.137Z,97.07
2019-02-10T21:37:26.120Z,93.20
2019-02-10T21:40:09.147Z,86.17
2019-02-10T21:42:46.751Z,99.27
2019-02-10T21:45:20.285Z,88.37
2019-02-10T21:47:54.469Z,94.33
2019-02-10T21:50:23.781Z,97.30
2019-02-10T21:52:53.287Z,91.40
2019-02-10T21:55:22.634Z,100.00
2019-02-10T21:57:51.973Z,94.80
2019-02-10T22:00:22.944Z,96.50
2019-02-10T22:02:52.395Z,90.03
2019-02-10T22:05:21.736Z,87.00
2019-02-10T22:07:52.415Z,77.50
2019-02-10T22:10:21.758Z,87.67
2019-02-10T22:12:51.057Z,95.07
2019-02-10T22:15:20.473Z,73.50
2019-02-10T22:17:49.773Z,85.27
2019-02-10T22:20:19.122Z,83.93
2019-02-10T22:22:48.429Z,86.83
2019-02-10T22:25:17.773Z,94.97
2019-02-10T22:27:47.076Z,84.73
2019-02-10T22:30:16.684Z,95.33
2019-02-10T22:32:45.990Z,80.33
2019-02-10T22:35:15.332Z,82.30
2019-02-10T22:37:44.638Z,85.73
2019-02-10T22:40:13.981Z,86.00
2019-02-10T22:42:45.722Z,88.50
2019-02-10T22:45:14.254Z,86.77
2019-02-10T22:47:43.570Z,89.20
2019-02-10T22:50:14.245Z,87.83
2019-02-10T22:52:43.549Z,84.20
2019-02-10T22:55:12.925Z,85.90
2019-02-10T22:57:42.242Z,91.23
2019-02-10T23:00:22.556Z,85.80
2019-02-10T23:02:53.450Z,96.90
2019-02-10T23:05:22.814Z,84.77
2019-02-10T23:07:52.121Z,78.27
2019-02-10T23:10:21.437Z,81.30
2019-02-10T23:12:53.733Z,81.47
2019-02-10T23:15:21.701Z,73.90
2019-02-10T23:17:51.050Z,81.13
2019-02-10T23:20:20.349Z,82.20
2019-02-10T23:22:49.692Z,65.77
2019-02-10T23:25:19.007Z,78.57
2019-02-10T23:27:48.418Z,69.50
2019-02-10T23:30:18.698Z,71.53
2019-02-10T23:32:48.038Z,76.33
2019-02-10T23:35:17.346Z,77.77
2019-02-10T23:37:46.685Z,62.37
2019-02-10T23:40:15.990Z,62.53
2019-02-10T23:42:45.336Z,72.37
2019-02-10T23:45:14.641Z,73.80
2019-02-10T23:47:43.989Z,66.20
2019-02-10T23:50:13.293Z,83.77
2019-02-10T23:52:42.645Z,71.00
2019-02-10T23:55:11.957Z,77.17
2019-02-10T23:57:41.294Z,73.03
